sensor_id;sensor_type;location;lat;lon;timestamp;pressure;altitude;pressure_sealevel;temperature;humidity
60087;BME280;45960;53.630;55.972;2023-03-03T00:00:37;99067.94;;;-7.77;86.56
60087;BME280;45960;53.630;55.972;2023-03-03T00:01:38;99069.59;;;-7.70;86.50
60087;BME280;45960;53.630;55.972;2023-03-03T00:02:39;99068.63;;;-7.61;86.47
60087;BME280;45960;53.630;55.972;2023-03-03T00:03:40;99069.50;;;-7.60;86.28
60087;BME280;45960;53.630;55.972;2023-03-03T00:04:42;99057.38;;;-7.58;86.33
60087;BME280;45960;53.630;55.972;2023-03-03T00:05:43;99064.22;;;-7.54;86.25
60087;BME280;45960;53.630;55.972;2023-03-03T00:06:44;99071.19;;;-7.59;86.31
60087;BME280;45960;53.630;55.972;2023-03-03T00:07:45;99070.31;;;-7.57;86.65
60087;BME280;45960;53.630;55.972;2023-03-03T00:08:47;99072.91;;;-7.55;86.69
60087;BME280;45960;53.630;55.972;2023-03-03T00:09:49;99079.78;;;-7.53;86.95
60087;BME280;45960;53.630;55.972;2023-03-03T00:10:50;99083.16;;;-7.46;87.19
60087;BME280;45960;53.630;55.972;2023-03-03T00:11:56;99075.38;;;-7.45;87.00
60087;BME280;45960;53.630;55.972;2023-03-03T00:12:59;99078.78;;;-7.43;87.19
60087;BME280;45960;53.630;55.972;2023-03-03T00:14:00;99074.47;;;-7.44;87.22
60087;BME280;45960;53.630;55.972;2023-03-03T00:15:13;99084.91;;;-7.48;87.00
60087;BME280;45960;53.630;55.972;2023-03-03T00:16:24;99076.31;;;-7.52;86.98
60087;BME280;45960;53.630;55.972;2023-03-03T00:17:28;99081.50;;;-7.50;87.12
60087;BME280;45960;53.630;55.972;2023-03-03T00:19:37;99097.84;;;-7.44;87.13
60087;BME280;45960;53.630;55.972;2023-03-03T00:20:39;99094.38;;;-7.46;86.87
60087;BME280;45960;53.630;55.972;2023-03-03T00:21:42;99097.88;;;-7.47;86.90
60087;BME280;45960;53.630;55.972;2023-03-03T00:22:44;99087.53;;;-7.50;86.61
60087;BME280;45960;53.630;55.972;2023-03-03T00:23:45;99097.06;;;-7.52;86.23
60087;BME280;45960;53.630;55.972;2023-03-03T00:24:46;99096.28;;;-7.60;86.63
60087;BME280;45960;53.630;55.972;2023-03-03T00:25:50;99098.88;;;-7.60;86.59
60087;BME280;45960;53.630;55.972;2023-03-03T00:26:54;99099.75;;;-7.61;86.73
60087;BME280;45960;53.630;55.972;2023-03-03T00:28:04;99102.34;;;-7.62;86.75
60087;BME280;45960;53.630;55.972;2023-03-03T00:30:27;99105.78;;;-7.59;86.68
60087;BME280;45960;53.630;55.972;2023-03-03T00:31:32;99106.63;;;-7.57;86.85
60087;BME280;45960;53.630;55.972;2023-03-03T00:33:52;99114.28;;;-7.46;86.77
60087;BME280;45960;53.630;55.972;2023-03-03T00:35:01;99114.28;;;-7.45;86.75
60087;BME280;45960;53.630;55.972;2023-03-03T00:36:21;99117.72;;;-7.46;86.63
60087;BME280;45960;53.630;55.972;2023-03-03T00:37:32;99113.44;;;-7.47;86.64
60087;BME280;45960;53.630;55.972;2023-03-03T00:38:34;99119.47;;;-7.46;86.60
60087;BME280;45960;53.630;55.972;2023-03-03T00:39:37;99120.38;;;-7.49;86.31
60087;BME280;45960;53.630;55.972;2023-03-03T00:40:39;99125.56;;;-7.49;86.43
60087;BME280;45960;53.630;55.972;2023-03-03T00:41:41;99122.97;;;-7.49;86.41
60087;BME280;45960;53.630;55.972;2023-03-03T00:42:46;99126.38;;;-7.45;86.31
60087;BME280;45960;53.630;55.972;2023-03-03T00:43:49;99129.84;;;-7.46;86.34
60087;BME280;45960;53.630;55.972;2023-03-03T00:44:59;99129.03;;;-7.50;86.36
60087;BME280;45960;53.630;55.972;2023-03-03T00:46:01;99129.94;;;-7.52;86.20
60087;BME280;45960;53.630;55.972;2023-03-03T00:48:21;99132.47;;;-7.48;86.07
60087;BME280;45960;53.630;55.972;2023-03-03T00:49:25;99129.00;;;-7.47;86.11
60087;BME280;45960;53.630;55.972;2023-03-03T00:50:30;99134.22;;;-7.50;86.04
60087;BME280;45960;53.630;55.972;2023-03-03T00:51:32;99131.66;;;-7.53;85.90
60087;BME280;45960;53.630;55.972;2023-03-03T00:52:45;99134.25;;;-7.54;85.99
60087;BME280;45960;53.630;55.972;2023-03-03T00:53:53;99127.28;;;-7.51;86.26
60087;BME280;45960;53.630;55.972;2023-03-03T00:54:54;99141.06;;;-7.43;86.29
60087;BME280;45960;53.630;55.972;2023-03-03T00:55:56;99139.28;;;-7.37;86.02
60087;BME280;45960;53.630;55.972;2023-03-03T00:56:57;99144.47;;;-7.37;86.05
60087;BME280;45960;53.630;55.972;2023-03-03T00:57:58;99140.13;;;-7.35;86.31
60087;BME280;45960;53.630;55.972;2023-03-03T00:59:04;99141.81;;;-7.33;86.26
60087;BME280;45960;53.630;55.972;2023-03-03T01:00:08;99139.16;;;-7.28;86.15
60087;BME280;45960;53.630;55.972;2023-03-03T01:01:10;99147.72;;;-7.20;86.21
60087;BME280;45960;53.630;55.972;2023-03-03T01:02:17;99142.56;;;-7.23;85.75
60087;BME280;45960;53.630;55.972;2023-03-03T01:03:20;99155.56;;;-7.26;86.10
60087;BME280;45960;53.630;55.972;2023-03-03T01:04:22;99158.13;;;-7.23;85.84
60087;BME280;45960;53.630;55.972;2023-03-03T01:05:23;99156.44;;;-7.24;85.69
60087;BME280;45960;53.630;55.972;2023-03-03T01:06:24;99157.34;;;-7.30;85.73
60087;BME280;45960;53.630;55.972;2023-03-03T01:07:25;99147.81;;;-7.28;86.15
60087;BME280;45960;53.630;55.972;2023-03-03T01:08:27;99160.81;;;-7.28;86.23
60087;BME280;45960;53.630;55.972;2023-03-03T01:09:28;99153.00;;;-7.28;86.15
60087;BME280;45960;53.630;55.972;2023-03-03T01:10:30;99161.75;;;-7.36;85.47
60087;BME280;45960;53.630;55.972;2023-03-03T01:11:33;99156.66;;;-7.46;85.65
60087;BME280;45960;53.630;55.972;2023-03-03T01:12:34;99151.53;;;-7.52;85.98
60087;BME280;45960;53.630;55.972;2023-03-03T01:13:36;99151.59;;;-7.58;86.09
60087;BME280;45960;53.630;55.972;2023-03-03T01:14:40;99149.00;;;-7.58;86.24
60087;BME280;45960;53.630;55.972;2023-03-03T01:15:42;99160.25;;;-7.59;86.15
60087;BME280;45960;53.630;55.972;2023-03-03T01:16:43;99155.97;;;-7.63;85.84
60087;BME280;45960;53.630;55.972;2023-03-03T01:17:44;99160.31;;;-7.63;86.01
60087;BME280;45960;53.630;55.972;2023-03-03T01:18:45;99167.22;;;-7.66;86.19
60087;BME280;45960;53.630;55.972;2023-03-03T01:19:47;99170.69;;;-7.65;86.10
60087;BME280;45960;53.630;55.972;2023-03-03T01:20:48;99167.25;;;-7.67;85.74
60087;BME280;45960;53.630;55.972;2023-03-03T01:21:49;99168.13;;;-7.67;85.93
60087;BME280;45960;53.630;55.972;2023-03-03T01:22:50;99170.72;;;-7.68;85.77
60087;BME280;45960;53.630;55.972;2023-03-03T01:23:51;99172.44;;;-7.69;85.84
60087;BME280;45960;53.630;55.972;2023-03-03T01:24:52;99174.19;;;-7.69;85.79
60087;BME280;45960;53.630;55.972;2023-03-03T01:25:53;99173.34;;;-7.70;85.50
60087;BME280;45960;53.630;55.972;2023-03-03T01:26:55;99188.00;;;-7.67;85.34
60087;BME280;45960;53.630;55.972;2023-03-03T01:27:56;99191.47;;;-7.67;85.45
60087;BME280;45960;53.630;55.972;2023-03-03T01:28:57;99182.00;;;-7.72;85.09
60087;BME280;45960;53.630;55.972;2023-03-03T01:29:58;99183.78;;;-7.79;85.16
60087;BME280;45960;53.630;55.972;2023-03-03T01:31:01;99179.47;;;-7.78;85.16
60087;BME280;45960;53.630;55.972;2023-03-03T01:32:03;99179.47;;;-7.81;84.87
60087;BME280;45960;53.630;55.972;2023-03-03T01:33:04;99185.56;;;-7.84;85.16
60087;BME280;45960;53.630;55.972;2023-03-03T01:34:05;99183.88;;;-7.86;85.16
60087;BME280;45960;53.630;55.972;2023-03-03T01:35:07;99180.41;;;-7.90;84.81
60087;BME280;45960;53.630;55.972;2023-03-03T01:36:08;99178.75;;;-7.99;84.58
60087;BME280;45960;53.630;55.972;2023-03-03T01:37:09;99179.66;;;-8.03;84.94
60087;BME280;45960;53.630;55.972;2023-03-03T01:38:10;99183.13;;;-8.07;84.83
60087;BME280;45960;53.630;55.972;2023-03-03T01:39:12;99184.94;;;-8.12;84.70
60087;BME280;45960;53.630;55.972;2023-03-03T01:40:22;99178.06;;;-8.19;85.03
60087;BME280;45960;53.630;55.972;2023-03-03T01:41:27;99182.38;;;-8.20;84.83
60087;BME280;45960;53.630;55.972;2023-03-03T01:42:29;99186.72;;;-8.20;84.79
60087;BME280;45960;53.630;55.972;2023-03-03T01:43:32;99186.72;;;-8.20;84.93
60087;BME280;45960;53.630;55.972;2023-03-03T01:44:33;99190.16;;;-8.21;84.85
60087;BME280;45960;53.630;55.972;2023-03-03T01:46:50;99197.94;;;-8.20;84.95
60087;BME280;45960;53.630;55.972;2023-03-03T01:49:22;99191.88;;;-8.17;84.91
60087;BME280;45960;53.630;55.972;2023-03-03T01:51:35;99197.88;;;-8.14;84.80
60087;BME280;45960;53.630;55.972;2023-03-03T01:52:44;99195.28;;;-8.09;84.60
60087;BME280;45960;53.630;55.972;2023-03-03T01:53:52;99198.69;;;-8.07;84.58
60087;BME280;45960;53.630;55.972;2023-03-03T01:54:59;99198.72;;;-8.10;84.25
60087;BME280;45960;53.630;55.972;2023-03-03T01:56:03;99198.75;;;-8.13;84.39
60087;BME280;45960;53.630;55.972;2023-03-03T01:57:11;99202.22;;;-8.14;84.67
60087;BME280;45960;53.630;55.972;2023-03-03T01:58:24;99194.50;;;-8.22;84.46
60087;BME280;45960;53.630;55.972;2023-03-03T01:59:30;99203.19;;;-8.30;84.22
60087;BME280;45960;53.630;55.972;2023-03-03T02:00:36;99197.22;;;-8.40;84.52
60087;BME280;45960;53.630;55.972;2023-03-03T02:01:39;99193.81;;;-8.47;84.40
60087;BME280;45960;53.630;55.972;2023-03-03T02:02:42;99205.94;;;-8.52;84.49
60087;BME280;45960;53.630;55.972;2023-03-03T02:03:43;99200.78;;;-8.55;84.71
60087;BME280;45960;53.630;55.972;2023-03-03T02:04:45;99205.97;;;-8.58;84.43
60087;BME280;45960;53.630;55.972;2023-03-03T02:05:46;99204.31;;;-8.65;84.22
60087;BME280;45960;53.630;55.972;2023-03-03T02:06:54;99211.22;;;-8.76;84.41
60087;BME280;45960;53.630;55.972;2023-03-03T02:07:57;99209.56;;;-8.87;84.38
60087;BME280;45960;53.630;55.972;2023-03-03T02:09:05;99215.66;;;-8.95;84.31
60087;BME280;45960;53.630;55.972;2023-03-03T02:10:13;99218.25;;;-9.03;84.26
60087;BME280;45960;53.630;55.972;2023-03-03T02:11:15;99217.44;;;-9.10;84.26
60087;BME280;45960;53.630;55.972;2023-03-03T02:12:18;99204.50;;;-9.14;84.23
60087;BME280;45960;53.630;55.972;2023-03-03T02:13:20;99207.94;;;-9.15;84.40
60087;BME280;45960;53.630;55.972;2023-03-03T02:14:21;99207.06;;;-9.16;84.39
60087;BME280;45960;53.630;55.972;2023-03-03T02:15:29;99213.13;;;-9.18;84.25
60087;BME280;45960;53.630;55.972;2023-03-03T02:16:35;99205.41;;;-9.26;84.58
60087;BME280;45960;53.630;55.972;2023-03-03T02:17:36;99214.03;;;-9.29;84.54
60087;BME280;45960;53.630;55.972;2023-03-03T02:18:37;99217.47;;;-9.28;84.47
60087;BME280;45960;53.630;55.972;2023-03-03T02:20:05;99220.06;;;-9.30;84.51
60087;BME280;45960;53.630;55.972;2023-03-03T02:21:16;99223.50;;;-9.31;84.33
60087;BME280;45960;53.630;55.972;2023-03-03T02:22:24;99224.38;;;-9.32;84.10
60087;BME280;45960;53.630;55.972;2023-03-03T02:23:36;99227.84;;;-9.37;84.32
60087;BME280;45960;53.630;55.972;2023-03-03T02:24:44;99223.53;;;-9.40;84.18
60087;BME280;45960;53.630;55.972;2023-03-03T02:26:53;99223.53;;;-9.43;84.27
60087;BME280;45960;53.630;55.972;2023-03-03T02:27:54;99223.50;;;-9.41;84.29
60087;BME280;45960;53.630;55.972;2023-03-03T02:28:57;99226.09;;;-9.38;84.10
60087;BME280;45960;53.630;55.972;2023-03-03T02:30:10;99227.81;;;-9.36;84.19
60087;BME280;45960;53.630;55.972;2023-03-03T02:31:17;99228.69;;;-9.40;83.81
60087;BME280;45960;53.630;55.972;2023-03-03T02:32:19;99223.53;;;-9.40;84.14
60087;BME280;45960;53.630;55.972;2023-03-03T02:33:20;99226.97;;;-9.41;83.88
60087;BME280;45960;53.630;55.972;2023-03-03T02:34:21;99220.94;;;-9.44;84.04
60087;BME280;45960;53.630;55.972;2023-03-03T02:35:35;99229.56;;;-9.50;83.84
60087;BME280;45960;53.630;55.972;2023-03-03T02:36:37;99221.81;;;-9.53;83.89
60087;BME280;45960;53.630;55.972;2023-03-03T02:37:39;99229.59;;;-9.59;83.57
60087;BME280;45960;53.630;55.972;2023-03-03T02:39:51;99221.84;;;-9.72;83.65
60087;BME280;45960;53.630;55.972;2023-03-03T02:42:33;99235.63;;;-9.66;83.71
60087;BME280;45960;53.630;55.972;2023-03-03T02:43:50;99231.31;;;-9.68;83.81
60087;BME280;45960;53.630;55.972;2023-03-03T02:44:54;99232.19;;;-9.69;83.44
60087;BME280;45960;53.630;55.972;2023-03-03T02:45:55;99228.75;;;-9.74;83.47
60087;BME280;45960;53.630;55.972;2023-03-03T02:46:59;99237.34;;;-9.78;83.51
60087;BME280;45960;53.630;55.972;2023-03-03T02:48:00;99234.75;;;-9.81;83.49
60087;BME280;45960;53.630;55.972;2023-03-03T02:49:02;99237.34;;;-9.84;83.64
60087;BME280;45960;53.630;55.972;2023-03-03T02:50:04;99239.06;;;-9.89;83.39
60087;BME280;45960;53.630;55.972;2023-03-03T02:51:06;99240.81;;;-9.91;83.76
60087;BME280;45960;53.630;55.972;2023-03-03T02:52:09;99242.53;;;-9.93;83.69
60087;BME280;45960;53.630;55.972;2023-03-03T02:53:14;99243.38;;;-9.96;83.85
60087;BME280;45960;53.630;55.972;2023-03-03T02:54:17;99252.00;;;-9.97;83.55
60087;BME280;45960;53.630;55.972;2023-03-03T02:55:18;99247.69;;;-9.99;83.57
60087;BME280;45960;53.630;55.972;2023-03-03T02:56:20;99245.94;;;-10.03;83.72
60087;BME280;45960;53.630;55.972;2023-03-03T02:57:21;99247.66;;;-10.05;83.41
60087;BME280;45960;53.630;55.972;2023-03-03T02:58:23;99245.94;;;-10.13;83.38
60087;BME280;45960;53.630;55.972;2023-03-03T02:59:24;99258.84;;;-10.20;83.34
60087;BME280;45960;53.630;55.972;2023-03-03T03:00:26;99258.00;;;-10.27;83.49
60087;BME280;45960;53.630;55.972;2023-03-03T03:01:42;99256.28;;;-10.31;83.51
60087;BME280;45960;53.630;55.972;2023-03-03T03:02:46;99260.59;;;-10.30;83.40
60087;BME280;45960;53.630;55.972;2023-03-03T03:03:47;99260.59;;;-10.28;83.37
60087;BME280;45960;53.630;55.972;2023-03-03T03:04:52;99263.19;;;-10.27;83.26
60087;BME280;45960;53.630;55.972;2023-03-03T03:05:56;99262.28;;;-10.24;83.19
60087;BME280;45960;53.630;55.972;2023-03-03T03:06:59;99267.50;;;-10.27;83.17
60087;BME280;45960;53.630;55.972;2023-03-03T03:08:02;99276.06;;;-10.31;83.04
60087;BME280;45960;53.630;55.972;2023-03-03T03:09:06;99268.34;;;-10.36;83.04
60087;BME280;45960;53.630;55.972;2023-03-03T03:10:08;99264.88;;;-10.38;83.24
60087;BME280;45960;53.630;55.972;2023-03-03T03:11:12;99270.03;;;-10.38;83.25
60087;BME280;45960;53.630;55.972;2023-03-03T03:12:14;99276.94;;;-10.42;83.25
60087;BME280;45960;53.630;55.972;2023-03-03T03:13:16;99268.28;;;-10.48;83.17
60087;BME280;45960;53.630;55.972;2023-03-03T03:14:18;99271.72;;;-10.52;83.24
60087;BME280;45960;53.630;55.972;2023-03-03T03:15:20;99273.44;;;-10.54;83.07
60087;BME280;45960;53.630;55.972;2023-03-03T03:16:21;99278.59;;;-10.57;83.38
60087;BME280;45960;53.630;55.972;2023-03-03T03:17:22;99274.25;;;-10.59;83.29
60087;BME280;45960;53.630;55.972;2023-03-03T03:18:25;99288.03;;;-10.56;83.35
60087;BME280;45960;53.630;55.972;2023-03-03T03:19:29;99283.75;;;-10.54;83.33
60087;BME280;45960;53.630;55.972;2023-03-03T03:20:36;99287.22;;;-10.55;83.33
60087;BME280;45960;53.630;55.972;2023-03-03T03:21:40;99288.91;;;-10.53;83.20
60087;BME280;45960;53.630;55.972;2023-03-03T03:22:42;99292.38;;;-10.52;83.32
60087;BME280;45960;53.630;55.972;2023-03-03T03:23:44;99286.34;;;-10.51;83.13
60087;BME280;45960;53.630;55.972;2023-03-03T03:24:46;99296.63;;;-10.56;83.09
60087;BME280;45960;53.630;55.972;2023-03-03T03:25:47;99289.75;;;-10.57;82.99
60087;BME280;45960;53.630;55.972;2023-03-03T03:26:56;99294.06;;;-10.57;83.13
60087;BME280;45960;53.630;55.972;2023-03-03T03:27:59;99288.03;;;-10.56;82.93
60087;BME280;45960;53.630;55.972;2023-03-03T03:29:00;99285.47;;;-10.56;82.96
60087;BME280;45960;53.630;55.972;2023-03-03T03:30:02;99288.03;;;-10.63;82.99
60087;BME280;45960;53.630;55.972;2023-03-03T03:31:05;99290.59;;;-10.64;82.75
60087;BME280;45960;53.630;55.972;2023-03-03T03:32:08;99280.28;;;-10.63;83.00
60087;BME280;45960;53.630;55.972;2023-03-03T03:33:09;99287.16;;;-10.59;83.01
60087;BME280;45960;53.630;55.972;2023-03-03T03:34:10;99284.56;;;-10.62;82.86
60087;BME280;45960;53.630;55.972;2023-03-03T03:35:12;99288.91;;;-10.61;82.71
60087;BME280;45960;53.630;55.972;2023-03-03T03:36:13;99283.75;;;-10.61;82.62
60087;BME280;45960;53.630;55.972;2023-03-03T03:37:15;99288.91;;;-10.61;82.47
60087;BME280;45960;53.630;55.972;2023-03-03T03:38:18;99286.28;;;-10.68;82.55
60087;BME280;45960;53.630;55.972;2023-03-03T03:39:21;99292.31;;;-10.69;82.63
60087;BME280;45960;53.630;55.972;2023-03-03T03:40:24;99305.19;;;-10.71;82.52
60087;BME280;45960;53.630;55.972;2023-03-03T03:41:26;99294.84;;;-10.74;82.47
60087;BME280;45960;53.630;55.972;2023-03-03T03:42:27;99293.16;;;-10.75;82.49
60087;BME280;45960;53.630;55.972;2023-03-03T03:43:29;99297.44;;;-10.74;82.66
60087;BME280;45960;53.630;55.972;2023-03-03T03:44:31;99300.88;;;-10.75;82.58
60087;BME280;45960;53.630;55.972;2023-03-03T03:45:32;99293.97;;;-10.76;82.59
60087;BME280;45960;53.630;55.972;2023-03-03T03:46:34;99306.03;;;-10.76;82.60
60087;BME280;45960;53.630;55.972;2023-03-03T03:47:35;99311.19;;;-10.76;82.31
60087;BME280;45960;53.630;55.972;2023-03-03T03:48:36;99304.28;;;-10.79;82.51
60087;BME280;45960;53.630;55.972;2023-03-03T03:49:39;99316.34;;;-10.78;82.85
60087;BME280;45960;53.630;55.972;2023-03-03T03:50:40;99309.47;;;-10.73;82.95
60087;BME280;45960;53.630;55.972;2023-03-03T03:51:42;99311.22;;;-10.72;82.66
60087;BME280;45960;53.630;55.972;2023-03-03T03:52:46;99317.25;;;-10.68;82.75
60087;BME280;45960;53.630;55.972;2023-03-03T03:53:47;99325.03;;;-10.64;82.74
60087;BME280;45960;53.630;55.972;2023-03-03T03:54:49;99328.44;;;-10.65;82.47
60087;BME280;45960;53.630;55.972;2023-03-03T03:55:50;99323.28;;;-10.68;82.39
60087;BME280;45960;53.630;55.972;2023-03-03T03:56:52;99326.72;;;-10.72;82.20
60087;BME280;45960;53.630;55.972;2023-03-03T03:57:55;99325.84;;;-10.72;82.64
60087;BME280;45960;53.630;55.972;2023-03-03T03:58:57;99325.00;;;-10.67;82.56
60087;BME280;45960;53.630;55.972;2023-03-03T03:59:58;99326.72;;;-10.66;82.73
60087;BME280;45960;53.630;55.972;2023-03-03T04:01:03;99331.91;;;-10.63;82.77
60087;BME280;45960;53.630;55.972;2023-03-03T04:02:06;99335.38;;;-10.57;82.61
60087;BME280;45960;53.630;55.972;2023-03-03T04:03:08;99336.28;;;-10.49;82.74
60087;BME280;45960;53.630;55.972;2023-03-03T04:04:09;99337.16;;;-10.43;82.92
60087;BME280;45960;53.630;55.972;2023-03-03T04:05:11;99331.16;;;-10.39;83.10
60087;BME280;45960;53.630;55.972;2023-03-03T04:06:12;99337.19;;;-10.35;82.96
60087;BME280;45960;53.630;55.972;2023-03-03T04:07:13;99334.59;;;-10.32;83.10
60087;BME280;45960;53.630;55.972;2023-03-03T04:08:15;99335.47;;;-10.24;83.09
60087;BME280;45960;53.630;55.972;2023-03-03T04:09:17;99333.78;;;-10.13;83.11
60087;BME280;45960;53.630;55.972;2023-03-03T04:10:19;99332.06;;;-10.10;83.03
60087;BME280;45960;53.630;55.972;2023-03-03T04:11:21;99332.06;;;-10.07;83.29
60087;BME280;45960;53.630;55.972;2023-03-03T04:12:22;99326.91;;;-10.04;83.18
60087;BME280;45960;53.630;55.972;2023-03-03T04:13:24;99342.44;;;-9.92;83.31
60087;BME280;45960;53.630;55.972;2023-03-03T04:14:29;99338.16;;;-9.88;83.24
60087;BME280;45960;53.630;55.972;2023-03-03T04:15:30;99337.25;;;-9.89;82.96
60087;BME280;45960;53.630;55.972;2023-03-03T04:16:32;99347.63;;;-9.87;83.05
60087;BME280;45960;53.630;55.972;2023-03-03T04:17:34;99342.47;;;-9.83;83.09
60087;BME280;45960;53.630;55.972;2023-03-03T04:18:35;99340.72;;;-9.87;82.86
60087;BME280;45960;53.630;55.972;2023-03-03T04:19:37;99351.06;;;-9.87;82.94
60087;BME280;45960;53.630;55.972;2023-03-03T04:20:39;99356.22;;;-9.81;83.19
60087;BME280;45960;53.630;55.972;2023-03-03T04:21:41;99364.88;;;-9.76;82.99
60087;BME280;45960;53.630;55.972;2023-03-03T04:22:43;99361.41;;;-9.85;83.16
60087;BME280;45960;53.630;55.972;2023-03-03T04:23:44;99359.69;;;-9.91;82.83
60087;BME280;45960;53.630;55.972;2023-03-03T04:24:45;99364.84;;;-9.91;82.76
60087;BME280;45960;53.630;55.972;2023-03-03T04:25:50;99359.66;;;-9.93;83.11
60087;BME280;45960;53.630;55.972;2023-03-03T04:26:52;99367.41;;;-9.86;83.20
60087;BME280;45960;53.630;55.972;2023-03-03T04:27:53;99371.75;;;-9.81;83.00
60087;BME280;45960;53.630;55.972;2023-03-03T04:28:56;99364.88;;;-9.70;83.09
60087;BME280;45960;53.630;55.972;2023-03-03T04:29:59;99370.03;;;-9.66;83.10
60087;BME280;45960;53.630;55.972;2023-03-03T04:31:00;99372.63;;;-9.63;83.14
60087;BME280;45960;53.630;55.972;2023-03-03T04:32:04;99375.25;;;-9.60;83.00
60087;BME280;45960;53.630;55.972;2023-03-03T04:33:06;99369.19;;;-9.59;83.12
60087;BME280;45960;53.630;55.972;2023-03-03T04:34:09;99370.06;;;-9.51;83.43
60087;BME280;45960;53.630;55.972;2023-03-03T04:35:10;99356.28;;;-9.50;83.40
60087;BME280;45960;53.630;55.972;2023-03-03T04:36:15;99360.59;;;-9.37;83.20
60087;BME280;45960;53.630;55.972;2023-03-03T04:37:16;99358.88;;;-9.39;83.11
60087;BME280;45960;53.630;55.972;2023-03-03T04:38:17;99373.53;;;-9.37;83.18
60087;BME280;45960;53.630;55.972;2023-03-03T04:39:20;99355.41;;;-9.34;83.19
60087;BME280;45960;53.630;55.972;2023-03-03T04:40:21;99361.47;;;-9.32;83.20
60087;BME280;45960;53.630;55.972;2023-03-03T04:41:24;99367.50;;;-9.30;82.95
60087;BME280;45960;53.630;55.972;2023-03-03T04:42:26;99373.53;;;-9.28;83.26
60087;BME280;45960;53.630;55.972;2023-03-03T04:43:28;99368.34;;;-9.25;83.43
60087;BME280;45960;53.630;55.972;2023-03-03T04:44:30;99376.97;;;-9.19;83.43
60087;BME280;45960;53.630;55.972;2023-03-03T04:45:32;99380.44;;;-9.14;83.23
60087;BME280;45960;53.630;55.972;2023-03-03T04:46:33;99380.44;;;-9.14;83.23
60087;BME280;45960;53.630;55.972;2023-03-03T04:47:35;99384.75;;;-9.15;83.39
60087;BME280;45960;53.630;55.972;2023-03-03T04:48:37;99380.44;;;-9.17;83.30
60087;BME280;45960;53.630;55.972;2023-03-03T04:49:38;99383.00;;;-9.19;83.32
60087;BME280;45960;53.630;55.972;2023-03-03T04:50:41;99382.16;;;-9.18;83.36
60087;BME280;45960;53.630;55.972;2023-03-03T04:51:43;99378.69;;;-9.17;83.40
60087;BME280;45960;53.630;55.972;2023-03-03T04:52:45;99385.59;;;-9.17;83.37
60087;BME280;45960;53.630;55.972;2023-03-03T04:53:47;99382.13;;;-9.16;83.43
60087;BME280;45960;53.630;55.972;2023-03-03T04:54:48;99387.34;;;-9.07;83.13
60087;BME280;45960;53.630;55.972;2023-03-03T04:55:51;99386.44;;;-9.05;83.12
60087;BME280;45960;53.630;55.972;2023-03-03T04:56:52;99388.19;;;-9.04;82.83
60087;BME280;45960;53.630;55.972;2023-03-03T04:57:53;99389.03;;;-9.00;83.28
60087;BME280;45960;53.630;55.972;2023-03-03T04:58:54;99384.72;;;-8.92;83.62
60087;BME280;45960;53.630;55.972;2023-03-03T04:59:55;99388.16;;;-8.79;83.49
60087;BME280;45960;53.630;55.972;2023-03-03T05:00:57;99389.00;;;-8.69;83.78
60087;BME280;45960;53.630;55.972;2023-03-03T05:02:00;99388.97;;;-8.63;83.38
60087;BME280;45960;53.630;55.972;2023-03-03T05:03:01;99395.03;;;-8.64;83.38
60087;BME280;45960;53.630;55.972;2023-03-03T05:04:03;99394.16;;;-8.63;83.14
60087;BME280;45960;53.630;55.972;2023-03-03T05:05:05;99394.16;;;-8.60;82.87
60087;BME280;45960;53.630;55.972;2023-03-03T05:06:07;99392.41;;;-8.55;83.35
60087;BME280;45960;53.630;55.972;2023-03-03T05:07:08;99383.78;;;-8.48;83.53
60087;BME280;45960;53.630;55.972;2023-03-03T05:08:09;99388.06;;;-8.39;83.41
60087;BME280;45960;53.630;55.972;2023-03-03T05:09:10;99390.59;;;-8.31;83.49
60087;BME280;45960;53.630;55.972;2023-03-03T05:10:11;99390.56;;;-8.24;83.45
60087;BME280;45960;53.630;55.972;2023-03-03T05:11:13;99398.28;;;-8.10;83.82
60087;BME280;45960;53.630;55.972;2023-03-03T05:12:14;99397.38;;;-7.95;83.58
60087;BME280;45960;53.630;55.972;2023-03-03T05:13:15;99399.94;;;-7.94;83.26
60087;BME280;45960;53.630;55.972;2023-03-03T05:14:17;99400.84;;;-7.98;83.30
60087;BME280;45960;53.630;55.972;2023-03-03T05:15:18;99398.25;;;-7.98;83.43
60087;BME280;45960;53.630;55.972;2023-03-03T05:16:19;99405.13;;;-7.92;83.49
60087;BME280;45960;53.630;55.972;2023-03-03T05:17:20;99399.91;;;-7.91;83.32
60087;BME280;45960;53.630;55.972;2023-03-03T05:18:25;99394.69;;;-7.84;83.45
60087;BME280;45960;53.630;55.972;2023-03-03T05:19:28;99404.19;;;-7.80;83.39
60087;BME280;45960;53.630;55.972;2023-03-03T05:20:29;99393.81;;;-7.77;83.25
60087;BME280;45960;53.630;55.972;2023-03-03T05:21:30;99395.50;;;-7.73;83.43
60087;BME280;45960;53.630;55.972;2023-03-03T05:22:31;99400.69;;;-7.69;83.33
60087;BME280;45960;53.630;55.972;2023-03-03T05:23:32;99401.47;;;-7.59;83.47
60087;BME280;45960;53.630;55.972;2023-03-03T05:24:33;99393.63;;;-7.47;83.70
60087;BME280;45960;53.630;55.972;2023-03-03T05:25:34;99394.47;;;-7.46;83.18
60087;BME280;45960;53.630;55.972;2023-03-03T05:26:35;99391.91;;;-7.48;83.07
60087;BME280;45960;53.630;55.972;2023-03-03T05:27:37;99397.16;;;-7.60;82.21
60087;BME280;45960;53.630;55.972;2023-03-03T05:28:39;99397.28;;;-7.75;82.82
60087;BME280;45960;53.630;55.972;2023-03-03T05:29:40;99401.56;;;-7.74;83.22
60087;BME280;45960;53.630;55.972;2023-03-03T05:30:41;99405.06;;;-7.83;83.12
60087;BME280;45960;53.630;55.972;2023-03-03T05:31:42;99400.78;;;-7.89;83.03
60087;BME280;45960;53.630;55.972;2023-03-03T05:32:43;99406.03;;;-7.98;83.01
60087;BME280;45960;53.630;55.972;2023-03-03T05:33:44;99409.50;;;-8.08;82.52
60087;BME280;45960;53.630;55.972;2023-03-03T05:34:46;99404.41;;;-8.29;81.70
60087;BME280;45960;53.630;55.972;2023-03-03T05:35:47;99401.91;;;-8.49;81.82
60087;BME280;45960;53.630;55.972;2023-03-03T05:36:52;99401.94;;;-8.59;82.35
60087;BME280;45960;53.630;55.972;2023-03-03T05:37:54;99401.06;;;-8.56;82.86
60087;BME280;45960;53.630;55.972;2023-03-03T05:38:55;99396.72;;;-8.48;82.97
60087;BME280;45960;53.630;55.972;2023-03-03T05:39:56;99399.28;;;-8.39;83.05
60087;BME280;45960;53.630;55.972;2023-03-03T05:40:58;99407.00;;;-8.29;83.18